Time;durP1;ratioP1;P1;durP2;ratioP2;P2;SDS_P1;SDS_P2;PMS_P1;PMS_P2;Temp;Humidity;BMP_temperature;BMP_pressure;BME280_temperature;BME280_humidity;BME280_pressure;Samples;Min_cycle;Max_cycle;Signal;HPM_P1;HPM_P2
2024/03/15 00:00:18;;;;;;;;;;;;;;;18.42;64.67;101065.44;7389104;19;1457;-36
2024/03/15 00:02:49;;;;;;;;;;;;;;;18.44;64.69;101060.81;7389870;19;1292;-34
2024/03/15 00:05:19;;;;;;;;;;;;;;;18.43;64.66;101064.50;7390323;19;1562;-35
2024/03/15 00:07:47;;;;;;;;;;;;;;;18.38;64.49;101067.56;7389679;19;1571;-36
2024/03/15 00:10:18;;;;;;;;;;;;;;;18.36;64.68;101063.28;7389161;19;1447;-35
2024/03/15 00:12:47;;;;;;;;;;;;;;;18.39;64.36;101053.19;7389090;19;1531;-35
2024/03/15 00:15:16;;;;;;;;;;;;;;;18.34;64.67;101057.19;7389070;19;1590;-35
2024/03/15 00:17:45;;;;;;;;;;;;;;;18.32;64.48;101051.13;7388426;19;1855;-35
2024/03/15 00:20:13;;;;;;;;;;;;;;;18.26;64.97;101053.34;7388212;19;1269;-36
2024/03/15 00:22:42;;;;;;;;;;;;;;;18.33;64.93;101034.09;7388750;19;1551;-36
2024/03/15 00:25:13;;;;;;;;;;;;;;;18.36;64.61;101029.31;7387904;19;1560;-36
2024/03/15 00:27:44;;;;;;;;;;;;;;;18.40;64.63;101033.47;7387434;19;1638;-36
2024/03/15 00:30:13;;;;;;;;;;;;;;;18.36;64.75;101036.50;7387890;19;1478;-36
2024/03/15 00:32:42;;;;;;;;;;;;;;;18.38;64.66;101039.91;7388131;19;1195;-36
2024/03/15 00:35:11;;;;;;;;;;;;;;;18.37;64.55;101043.56;7388975;19;1443;-36
2024/03/15 00:37:40;;;;;;;;;;;;;;;18.30;64.67;101037.84;7385950;19;1867;-36
2024/03/15 00:40:09;;;;;;;;;;;;;;;18.32;64.53;101019.84;7387320;19;1548;-36
2024/03/15 00:42:38;;;;;;;;;;;;;;;18.34;64.57;101039.28;7387622;19;1429;-36
2024/03/15 00:45:10;;;;;;;;;;;;;;;18.32;64.85;101037.72;7373047;19;1199;-35
2024/03/15 00:47:38;;;;;;;;;;;;;;;18.37;64.98;101028.34;7388631;19;1197;-35
2024/03/15 00:50:07;;;;;;;;;;;;;;;18.37;64.86;101039.06;7387647;19;1905;-35
2024/03/15 00:52:37;;;;;;;;;;;;;;;18.38;64.99;101042.59;7388206;19;1551;-35
2024/03/15 00:55:06;;;;;;;;;;;;;;;18.34;64.68;101035.78;7388283;19;1553;-35
2024/03/15 00:57:34;;;;;;;;;;;;;;;18.33;64.78;101040.28;7386538;19;1857;-35
2024/03/15 01:00:04;;;;;;;;;;;;;;;18.34;64.74;101035.78;7387109;19;1011;-35
2024/03/15 01:02:35;;;;;;;;;;;;;;;18.31;64.60;101034.22;7388408;19;974;-35
2024/03/15 01:05:05;;;;;;;;;;;;;;;18.25;65.08;101046.25;7387697;19;1834;-35
2024/03/15 01:07:34;;;;;;;;;;;;;;;18.22;64.96;101046.53;7387289;19;1392;-35
2024/03/15 01:10:02;;;;;;;;;;;;;;;18.21;65.27;101042.13;7387621;19;1443;-36
2024/03/15 01:12:31;;;;;;;;;;;;;;;18.26;65.29;101031.91;7388398;19;1591;-36
2024/03/15 01:14:59;;;;;;;;;;;;;;;18.31;65.18;101038.72;7394287;19;1438;-35
2024/03/15 01:17:28;;;;;;;;;;;;;;;18.27;65.13;101030.94;7392450;19;1867;-36
2024/03/15 01:19:59;;;;;;;;;;;;;;;18.28;65.21;101026.41;7392265;19;1494;-36
2024/03/15 01:22:28;;;;;;;;;;;;;;;18.29;65.14;101034.31;7393138;19;1513;-36
2024/03/15 01:24:58;;;;;;;;;;;;;;;18.32;65.02;101032.38;7392259;19;1301;-36
2024/03/15 01:27:26;;;;;;;;;;;;;;;18.29;65.03;101030.81;7391904;19;1654;-36
2024/03/15 01:29:55;;;;;;;;;;;;;;;18.29;65.02;101034.31;7392070;19;1556;-36
2024/03/15 01:32:24;;;;;;;;;;;;;;;18.27;65.19;101033.59;7391758;19;1456;-36
2024/03/15 01:34:52;;;;;;;;;;;;;;;18.20;65.08;101018.16;7393171;19;1102;-36
2024/03/15 01:37:24;;;;;;;;;;;;;;;18.19;65.12;101014.63;7391358;19;1899;-36
2024/03/15 01:39:53;;;;;;;;;;;;;;;18.27;65.00;101028.25;7392322;19;1500;-35
2024/03/15 01:42:21;;;;;;;;;;;;;;;18.22;65.36;101030.47;7391139;19;1508;-35
2024/03/15 01:44:54;;;;;;;;;;;;;;;18.22;65.21;101018.88;7390963;19;1180;-36
2024/03/15 01:47:25;;;;;;;;;;;;;;;18.26;65.29;101031.91;7387729;19;1093;-35
2024/03/15 01:49:55;;;;;;;;;;;;;;;18.24;65.25;101020.47;7391736;19;1346;-35
2024/03/15 01:52:30;;;;;;;;;;;;;;;18.28;65.16;101027.28;7391980;19;1661;-35
2024/03/15 01:54:59;;;;;;;;;;;;;;;18.25;65.16;101030.19;7391998;19;1573;-35
2024/03/15 01:57:28;;;;;;;;;;;;;;;18.29;64.98;101038.84;7393174;19;1878;-35
2024/03/15 01:59:58;;;;;;;;;;;;;;;18.26;64.91;101028.38;7394824;19;1041;-35
2024/03/15 02:02:26;;;;;;;;;;;;;;;18.07;65.51;101027.19;7394688;19;1577;-35
2024/03/15 02:04:56;;;;;;;;;;;;;;;18.26;64.95;101015.84;7393213;19;1611;-35
2024/03/15 02:07:27;;;;;;;;;;;;;;;18.96;63.38;101019.06;7393220;19;1516;-35
2024/03/15 02:09:56;;;;;;;;;;;;;;;19.64;61.44;101013.28;7394290;19;1199;-35
2024/03/15 02:12:25;;;;;;;;;;;;;;;20.19;60.15;101029.06;7393527;19;1531;-35
2024/03/15 02:14:53;;;;;;;;;;;;;;;20.09;60.31;101028.19;7393696;19;1191;-35
2024/03/15 02:17:22;;;;;;;;;;;;;;;19.94;60.59;101004.41;7394227;19;1838;-35
2024/03/15 02:19:51;;;;;;;;;;;;;;;19.99;60.55;101018.25;7391023;19;1398;-35
2024/03/15 02:22:22;;;;;;;;;;;;;;;20.04;60.75;101015.16;7390581;19;1531;-35
2024/03/15 02:24:51;;;;;;;;;;;;;;;20.01;60.64;101008.22;7388540;19;1580;-35
2024/03/15 02:27:19;;;;;;;;;;;;;;;20.07;60.75;101020.25;7388780;19;1743;-35
2024/03/15 02:29:48;;;;;;;;;;;;;;;20.14;60.38;101016.03;7391180;19;1507;-35
2024/03/15 02:32:18;;;;;;;;;;;;;;;20.21;60.44;101008.28;7390306;19;1110;-35
2024/03/15 02:34:46;;;;;;;;;;;;;;;20.25;60.04;101010.56;7390312;19;1414;-35
2024/03/15 02:37:16;;;;;;;;;;;;;;;20.26;60.14;101016.78;7389811;19;1846;-35
2024/03/15 02:39:47;;;;;;;;;;;;;;;20.37;59.86;101015.81;7388161;19;2389;-36
2024/03/15 02:42:16;;;;;;;;;;;;;;;20.37;59.87;101007.75;7390059;19;1571;-35
2024/03/15 02:44:44;;;;;;;;;;;;;;;20.35;59.97;101005.22;7389941;19;1600;-36
2024/03/15 02:47:13;;;;;;;;;;;;;;;20.30;60.20;101014.69;7375215;19;1587;-36
2024/03/15 02:49:41;;;;;;;;;;;;;;;20.33;60.05;101015.22;7390198;19;1212;-36
2024/03/15 02:52:10;;;;;;;;;;;;;;;20.37;59.80;101013.13;7390463;19;1478;-36
2024/03/15 02:54:39;;;;;;;;;;;;;;;20.42;59.83;101018.94;7390272;19;1476;-36
2024/03/15 02:57:10;;;;;;;;;;;;;;;20.40;59.82;101018.22;7390354;19;1854;-36
2024/03/15 02:59:38;;;;;;;;;;;;;;;20.43;59.79;101016.13;7389059;19;1488;-37
2024/03/15 03:02:08;;;;;;;;;;;;;;;20.46;59.73;101017.66;7386441;19;1207;-36
2024/03/15 03:04:37;;;;;;;;;;;;;;;20.42;59.81;101013.56;7389622;19;1634;-36
2024/03/15 03:07:06;;;;;;;;;;;;;;;20.16;59.87;100949.63;7389202;19;1510;-35
2024/03/15 03:09:35;;;;;;;;;;;;;;;20.53;59.62;101020.63;7389425;19;1546;-35
2024/03/15 03:12:03;;;;;;;;;;;;;;;20.55;59.44;101024.91;7388873;19;1608;-35
2024/03/15 03:14:34;;;;;;;;;;;;;;;20.55;59.59;101022.22;7389224;19;1610;-36
2024/03/15 03:17:03;;;;;;;;;;;;;;;20.55;59.53;101024.91;7390164;19;1869;-36
2024/03/15 03:19:31;;;;;;;;;;;;;;;20.55;59.70;101034.78;7388879;19;1148;-36
2024/03/15 03:22:00;;;;;;;;;;;;;;;20.48;59.88;101026.44;7387617;19;1647;-36
2024/03/15 03:24:28;;;;;;;;;;;;;;;20.55;59.67;101027.59;7386438;19;1610;-36
2024/03/15 03:26:57;;;;;;;;;;;;;;;20.63;59.46;101033.16;7385570;19;2405;-35
2024/03/15 03:29:25;;;;;;;;;;;;;;;20.63;59.63;101041.22;7388274;19;1390;-35
2024/03/15 03:31:56;;;;;;;;;;;;;;;20.59;59.77;101026.34;7388026;19;1466;-36
2024/03/15 03:34:25;;;;;;;;;;;;;;;20.64;59.52;101040.19;7388064;19;1483;-35
2024/03/15 03:36:53;;;;;;;;;;;;;;;20.60;59.76;101035.25;7388397;19;1173;-34
2024/03/15 03:39:22;;;;;;;;;;;;;;;20.63;59.83;101027.78;7386280;19;1945;-34
2024/03/15 03:41:51;;;;;;;;;;;;;;;20.69;59.63;101030.88;7388029;19;1502;-36
2024/03/15 03:44:20;;;;;;;;;;;;;;;20.66;59.81;101032.84;7387991;19;1452;-35
2024/03/15 03:46:48;;;;;;;;;;;;;;;20.71;59.74;101045.03;7373289;19;1615;-36
2024/03/15 03:49:20;;;;;;;;;;;;;;;20.78;59.66;101030.03;7387900;19;1520;-36
2024/03/15 03:51:49;;;;;;;;;;;;;;;20.81;59.32;101019.00;7388017;19;1540;-36
2024/03/15 03:54:17;;;;;;;;;;;;;;;20.81;59.29;101029.75;7388190;19;1488;-35
2024/03/15 03:56:47;;;;;;;;;;;;;;;20.89;59.36;101032.59;7388509;19;1277;-36
2024/03/15 03:59:16;;;;;;;;;;;;;;;20.82;59.24;101023.41;7385882;19;1870;-36
2024/03/15 04:01:44;;;;;;;;;;;;;;;20.23;60.83;101025.09;7386975;19;1556;-37
2024/03/15 04:04:13;;;;;;;;;;;;;;;19.83;61.63;101001.81;7387208;19;1540;-36
2024/03/15 04:06:49;;;;;;;;;;;;;;;19.61;62.26;101037.69;7386888;19;1498;-36
2024/03/15 04:09:19;;;;;;;;;;;;;;;19.43;62.79;101032.91;7387501;19;1477;-36
2024/03/15 04:11:47;;;;;;;;;;;;;;;19.27;62.88;101035.22;7386428;19;1238;-35
2024/03/15 04:14:16;;;;;;;;;;;;;;;19.17;63.02;101019.06;7386353;19;1746;-36
2024/03/15 04:16:44;;;;;;;;;;;;;;;19.05;63.14;101038.88;7387251;19;1088;-36
2024/03/15 04:19:13;;;;;;;;;;;;;;;18.95;63.42;101025.38;7384890;19;1868;-36
2024/03/15 04:21:45;;;;;;;;;;;;;;;18.88;63.72;101040.31;7386167;19;1655;-36
2024/03/15 04:24:13;;;;;;;;;;;;;;;18.95;63.58;101035.25;7387507;19;1567;-36
2024/03/15 04:26:42;;;;;;;;;;;;;;;19.20;63.13;101036.72;7385730;19;1486;-36
2024/03/15 04:29:08;;;;;;;;;;;;;;;19.39;62.86;101036.00;7386500;19;1274;-36
2024/03/15 04:31:40;;;;;;;;;;;;;;;19.61;62.44;101043.03;7387455;19;1103;-36
2024/03/15 04:34:09;;;;;;;;;;;;;;;19.73;62.09;101033.97;7386216;19;1837;-36
2024/03/15 04:36:38;;;;;;;;;;;;;;;19.81;61.74;101027.94;7386823;19;1568;-36
2024/03/15 04:39:10;;;;;;;;;;;;;;;19.86;61.38;101044.50;7385919;19;1853;-36
2024/03/15 04:41:39;;;;;;;;;;;;;;;19.79;61.81;101029.91;7385886;19;1378;-35
2024/03/15 04:44:08;;;;;;;;;;;;;;;19.66;62.02;101055.09;7385484;19;1496;-36
2024/03/15 04:46:36;;;;;;;;;;;;;;;19.65;62.13;101044.47;7370805;19;1492;-36
2024/03/15 04:49:07;;;;;;;;;;;;;;;19.58;62.53;101032.59;7382793;19;1594;-36
2024/03/15 04:51:35;;;;;;;;;;;;;;;19.63;62.27;101044.59;7385048;19;1799;-36
2024/03/15 04:54:04;;;;;;;;;;;;;;;19.63;62.46;101041.91;7384920;19;1433;-36
2024/03/15 04:56:36;;;;;;;;;;;;;;;19.58;62.49;101043.31;7383980;19;1438;-35
2024/03/15 04:59:04;;;;;;;;;;;;;;;19.61;62.35;101045.72;7384790;19;1869;-36
2024/03/15 05:01:33;;;;;;;;;;;;;;;19.61;62.32;101045.72;7383062;19;1795;-36
2024/03/15 05:04:01;;;;;;;;;;;;;;;19.62;62.38;101032.19;7384967;19;1494;-36
2024/03/15 05:06:30;;;;;;;;;;;;;;;19.61;62.47;101029.63;7383278;19;1396;-36
2024/03/15 05:08:59;;;;;;;;;;;;;;;19.63;62.46;101038.41;7383959;19;1517;-36
2024/03/15 05:11:27;;;;;;;;;;;;;;;19.66;62.35;101043.50;7383659;19;1203;-35
2024/03/15 05:13:58;;;;;;;;;;;;;;;19.66;62.16;101039.00;7382858;19;1413;-35
2024/03/15 05:16:27;;;;;;;;;;;;;;;19.69;62.21;101045.91;7385837;19;1280;-35
2024/03/15 05:18:56;;;;;;;;;;;;;;;19.67;62.27;101055.94;7383654;19;1847;-35
2024/03/15 05:21:25;;;;;;;;;;;;;;;19.69;62.22;101048.59;7384574;19;1347;-35
2024/03/15 05:23:53;;;;;;;;;;;;;;;19.69;62.28;101043.22;7384676;19;1252;-35
2024/03/15 05:26:22;;;;;;;;;;;;;;;19.70;62.23;101053.00;7385260;19;1062;-35
2024/03/15 05:28:50;;;;;;;;;;;;;;;19.67;62.33;101066.66;7382992;19;1306;-35
2024/03/15 05:31:26;;;;;;;;;;;;;;;19.68;62.23;101066.53;7382557;19;1774;-35
2024/03/15 05:33:54;;;;;;;;;;;;;;;19.70;62.45;101062.88;7384437;19;1475;-35
2024/03/15 05:36:23;;;;;;;;;;;;;;;19.70;62.33;101061.03;7381531;19;1341;-35
2024/03/15 05:38:51;;;;;;;;;;;;;;;19.72;62.50;101053.75;7381732;19;2479;-34
2024/03/15 05:41:20;;;;;;;;;;;;;;;19.66;62.50;101065.81;7384566;19;1391;-35
2024/03/15 05:43:49;;;;;;;;;;;;;;;19.70;62.35;101053.00;7383859;19;1509;-34
2024/03/15 05:46:18;;;;;;;;;;;;;;;19.84;62.17;101062.56;7366338;19;1426;-36
2024/03/15 05:48:49;;;;;;;;;;;;;;;19.77;62.20;101070.28;7378952;19;1492;-35
2024/03/15 05:51:18;;;;;;;;;;;;;;;19.69;62.27;101075.41;7382215;19;1456;-35
2024/03/15 05:53:47;;;;;;;;;;;;;;;19.69;62.22;101059.31;7382395;19;1379;-35
2024/03/15 05:56:16;;;;;;;;;;;;;;;19.71;62.08;101065.44;7383889;19;1483;-36
2024/03/15 05:58:44;;;;;;;;;;;;;;;19.67;62.44;101061.28;7380240;19;1873;-36
2024/03/15 06:01:14;;;;;;;;;;;;;;;19.68;62.40;101057.66;7390335;19;1495;-36
2024/03/15 06:03:42;;;;;;;;;;;;;;;19.68;62.26;101063.84;7389285;19;1537;-36
2024/03/15 06:06:14;;;;;;;;;;;;;;;19.65;62.39;101063.25;7391220;19;1397;-36
2024/03/15 06:08:43;;;;;;;;;;;;;;;19.69;62.17;101064.69;7389898;19;1441;-36
2024/03/15 06:11:12;;;;;;;;;;;;;;;19.68;62.13;101071.06;7390844;19;1459;-36
2024/03/15 06:13:41;;;;;;;;;;;;;;;19.68;62.03;101079.94;7392854;19;1125;-36
2024/03/15 06:16:11;;;;;;;;;;;;;;;19.64;62.21;101078.50;7391804;19;1282;-36
2024/03/15 06:18:41;;;;;;;;;;;;;;;19.63;62.24;101066.06;7389369;19;1846;-35
2024/03/15 06:21:10;;;;;;;;;;;;;;;19.59;62.12;101085.25;7390640;19;1317;-36
2024/03/15 06:23:42;;;;;;;;;;;;;;;19.63;62.25;101075.97;7390708;19;1313;-36
2024/03/15 06:26:10;;;;;;;;;;;;;;;19.64;62.12;101075.00;7390727;19;1256;-36
2024/03/15 06:28:39;;;;;;;;;;;;;;;19.75;61.95;101082.97;7389711;19;1607;-35
2024/03/15 06:31:07;;;;;;;;;;;;;;;19.78;61.64;101085.41;7391772;19;1459;-36
2024/03/15 06:33:36;;;;;;;;;;;;;;;19.88;61.25;101081.94;7389350;19;1615;-36
2024/03/15 06:36:04;;;;;;;;;;;;;;;19.91;61.32;101078.97;7390265;19;1128;-36
2024/03/15 06:38:40;;;;;;;;;;;;;;;19.86;61.51;101082.91;7389296;19;1868;-36
2024/03/15 06:41:29;;;;;;;;;;;;;;;19.85;61.37;101075.81;7389566;19;1581;-36
2024/03/15 06:44:19;;;;;;;;;;;;;;;19.92;61.31;101102.16;7390143;19;1160;-36
2024/03/15 06:47:04;;;;;;;;;;;;;;;19.99;61.14;101076.47;7374718;19;1556;-36
2024/03/15 06:49:44;;;;;;;;;;;;;;;19.96;60.99;101077.59;7390136;19;1640;-36
2024/03/15 06:54:54;;;;;;;;;;;;;;;19.95;60.94;101091.97;7390029;19;1484;-35
2024/03/15 06:57:27;;;;;;;;;;;;;;;19.89;61.40;101088.97;7390742;19;1124;-35
2024/03/15 06:59:56;;;;;;;;;;;;;;;19.94;61.30;101092.13;7388032;19;1851;-35
2024/03/15 07:02:29;;;;;;;;;;;;;;;19.97;61.16;101098.06;7389537;19;1510;-36
2024/03/15 07:04:58;;;;;;;;;;;;;;;19.61;61.94;101094.84;7388889;19;1505;-35
2024/03/15 07:07:27;;;;;;;;;;;;;;;19.41;62.60;101104.59;7389159;19;1493;-36
2024/03/15 07:09:55;;;;;;;;;;;;;;;19.23;63.21;101095.44;7388585;19;1381;-36
2024/03/15 07:12:26;;;;;;;;;;;;;;;19.05;63.36;101097.84;7388541;19;1536;-36
2024/03/15 07:14:55;;;;;;;;;;;;;;;19.01;63.42;101091.88;7388712;19;1560;-35
2024/03/15 07:17:24;;;;;;;;;;;;;;;18.93;63.65;101104.22;7390219;19;1177;-35
2024/03/15 07:19:54;;;;;;;;;;;;;;;19.14;63.19;101090.84;7387580;19;1869;-35
2024/03/15 07:22:23;;;;;;;;;;;;;;;19.38;62.66;101094.16;7389137;19;1709;-35
2024/03/15 07:24:52;;;;;;;;;;;;;;;19.58;62.37;101088.94;7388833;19;1567;-35
2024/03/15 07:27:21;;;;;;;;;;;;;;;19.42;62.45;101114.38;7388573;19;1654;-35
2024/03/15 07:29:53;;;;;;;;;;;;;;;19.25;62.99;101104.22;7388592;19;1469;-35
2024/03/15 07:32:21;;;;;;;;;;;;;;;19.11;63.33;101096.47;7388895;19;1628;-35
2024/03/15 07:34:49;;;;;;;;;;;;;;;19.01;63.66;101101.75;7388283;19;1532;-36
2024/03/15 07:37:18;;;;;;;;;;;;;;;18.83;62.73;101098.75;7388818;19;1532;-36
2024/03/15 07:39:46;;;;;;;;;;;;;;;19.00;63.01;101105.41;7387243;19;1842;-35
2024/03/15 07:42:15;;;;;;;;;;;;;;;19.42;62.00;101095.59;7385838;19;2364;-35
2024/03/15 07:44:43;;;;;;;;;;;;;;;19.77;60.98;101096.25;7388425;19;1626;-35
2024/03/15 07:47:15;;;;;;;;;;;;;;;19.55;61.73;101098.06;7373203;19;1517;-35
2024/03/15 07:49:44;;;;;;;;;;;;;;;19.31;62.56;101102.84;7388648;19;1559;-36
2024/03/15 07:52:12;;;;;;;;;;;;;;;18.86;62.94;101060.97;7388642;19;1650;-35
2024/03/15 07:54:41;;;;;;;;;;;;;;;19.10;63.21;101114.41;7387881;19;1476;-35
2024/03/15 07:57:09;;;;;;;;;;;;;;;19.03;63.23;101097.13;7388698;19;1114;-35
2024/03/15 07:59:39;;;;;;;;;;;;;;;19.14;63.06;101101.56;7386303;19;1851;-35
2024/03/15 08:02:08;;;;;;;;;;;;;;;19.56;61.87;101090.91;7388276;19;1470;-35
2024/03/15 08:04:39;;;;;;;;;;;;;;;19.99;60.48;101092.56;7386505;19;1274;-36
2024/03/15 08:07:07;;;;;;;;;;;;;;;20.17;60.13;101090.94;7386496;19;1427;-35
2024/03/15 08:09:36;;;;;;;;;;;;;;;20.21;59.94;101091.53;7386565;19;1563;-34
2024/03/15 08:12:06;;;;;;;;;;;;;;;20.29;59.73;101105.13;7386360;19;1474;-36
2024/03/15 08:14:36;;;;;;;;;;;;;;;20.22;59.64;101088.72;7386918;19;1875;-36
2024/03/15 08:17:05;;;;;;;;;;;;;;;20.16;59.94;101088.41;7383303;19;2475;-35
2024/03/15 08:19:34;;;;;;;;;;;;;;;20.14;59.98;101106.50;7385389;19;1861;-36
2024/03/15 08:22:05;;;;;;;;;;;;;;;20.11;60.00;101099.53;7382754;19;1520;-36
2024/03/15 08:24:34;;;;;;;;;;;;;;;20.16;59.84;101101.84;7384556;19;1167;-36
2024/03/15 08:27:02;;;;;;;;;;;;;;;20.10;60.23;101092.47;7385021;19;1407;-36
2024/03/15 08:29:30;;;;;;;;;;;;;;;20.10;59.86;101089.81;7384865;19;1382;-46
2024/03/15 08:32:00;;;;;;;;;;;;;;;20.15;59.91;101094.75;7382635;19;1288;-36
2024/03/15 08:34:29;;;;;;;;;;;;;;;20.19;59.74;101099.75;7386180;19;1200;-35
2024/03/15 08:36:57;;;;;;;;;;;;;;;20.10;60.02;101097.84;7386827;19;1486;-35
2024/03/15 08:39:29;;;;;;;;;;;;;;;20.28;59.61;101092.69;7385214;19;1850;-35
2024/03/15 08:41:58;;;;;;;;;;;;;;;20.35;60.37;101093.84;7385884;19;1493;-35
2024/03/15 08:44:27;;;;;;;;;;;;;;;20.32;61.51;101110.22;7386785;19;1244;-35
2024/03/15 08:46:56;;;;;;;;;;;;;;;20.31;62.32;101094.25;7385908;19;1572;-35
2024/03/15 08:49:26;;;;;;;;;;;;;;;20.33;62.58;101101.16;7372164;19;2518;-35
2024/03/15 08:51:54;;;;;;;;;;;;;;;20.39;62.69;101105.16;7388844;19;1018;-35
2024/03/15 08:54:22;;;;;;;;;;;;;;;20.33;63.12;101095.81;7388165;19;1563;-35
2024/03/15 08:56:54;;;;;;;;;;;;;;;20.26;62.96;101092.81;7385271;19;1319;-36
2024/03/15 08:59:23;;;;;;;;;;;;;;;20.16;62.09;101094.63;7385906;19;1855;-36
2024/03/15 09:01:48;;;;;;;;;;;;;;;20.08;62.20;101091.78;7386588;19;1473;-36
2024/03/15 09:04:18;;;;;;;;;;;;;;;20.08;61.84;101094.44;7387851;19;982;-35
2024/03/15 09:06:47;;;;;;;;;;;;;;;20.21;61.69;101092.41;7387699;19;1152;-36
2024/03/15 09:09:21;;;;;;;;;;;;;;;20.22;62.12;101098.59;7387292;19;1521;-35
2024/03/15 09:11:49;;;;;;;;;;;;;;;20.29;62.26;101094.38;7385511;19;1399;-35
2024/03/15 09:14:21;;;;;;;;;;;;;;;20.26;62.87;101084.75;7385581;19;1578;-35
2024/03/15 09:16:50;;;;;;;;;;;;;;;20.25;64.00;101099.19;7383064;19;2331;-36
2024/03/15 09:19:20;;;;;;;;;;;;;;;20.24;64.70;101092.09;7385481;19;1854;-35
2024/03/15 09:21:49;;;;;;;;;;;;;;;20.31;65.32;101091.56;7385912;19;1519;-35
2024/03/15 09:24:19;;;;;;;;;;;;;;;20.31;65.38;101096.94;7385884;19;1555;-36
2024/03/15 09:26:47;;;;;;;;;;;;;;;20.30;65.79;101095.25;7384597;19;1600;-35
2024/03/15 09:29:17;;;;;;;;;;;;;;;20.28;65.97;101084.63;7384790;19;1010;-36
2024/03/15 09:31:51;;;;;;;;;;;;;;;20.14;64.92;101093.06;7385147;19;1588;-36
2024/03/15 09:34:21;;;;;;;;;;;;;;;20.14;64.49;101085.84;7388723;19;1556;-36
2024/03/15 09:36:51;;;;;;;;;;;;;;;20.19;64.80;101078.25;7392111;19;1583;-36
2024/03/15 09:39:19;;;;;;;;;;;;;;;20.14;64.60;101090.38;7391778;19;1889;-35
2024/03/15 09:41:49;;;;;;;;;;;;;;;20.14;64.38;101090.38;7389727;19;1528;-35
2024/03/15 09:44:18;;;;;;;;;;;;;;;20.08;64.55;101101.66;7392238;19;1515;-36
2024/03/15 09:46:49;;;;;;;;;;;;;;;20.03;64.61;101104.72;7391179;19;1433;-35
2024/03/15 09:49:18;;;;;;;;;;;;;;;20.01;64.43;101075.31;7378058;19;1496;-35
2024/03/15 09:51:47;;;;;;;;;;;;;;;20.06;64.40;101088.38;7391262;19;1259;-35
2024/03/15 09:54:16;;;;;;;;;;;;;;;20.00;64.20;101075.50;7391862;19;1100;-36
2024/03/15 09:56:46;;;;;;;;;;;;;;;20.02;64.33;101092.31;7391586;19;1196;-35
2024/03/15 09:59:20;;;;;;;;;;;;;;;20.04;64.32;101087.66;7391768;19;1887;-35
2024/03/15 10:01:51;;;;;;;;;;;;;;;20.04;64.26;101079.59;7390806;19;1619;-36
2024/03/15 10:04:19;;;;;;;;;;;;;;;20.15;64.15;101082.16;7389757;19;1444;-36
2024/03/15 10:06:48;;;;;;;;;;;;;;;20.09;64.22;101076.50;7389967;19;1419;-35
2024/03/15 10:09:17;;;;;;;;;;;;;;;20.13;64.15;101088.66;7390266;19;1536;-35
2024/03/15 10:11:45;;;;;;;;;;;;;;;20.12;64.09;101074.41;7390560;19;1321;-35
2024/03/15 10:14:14;;;;;;;;;;;;;;;20.07;64.10;101082.00;7391303;19;1552;-35
2024/03/15 10:16:43;;;;;;;;;;;;;;;20.08;64.15;101089.09;7391454;19;1179;-40
2024/03/15 10:19:14;;;;;;;;;;;;;;;20.09;64.11;101071.97;7390358;19;1512;-35
2024/03/15 10:21:43;;;;;;;;;;;;;;;20.15;64.00;101081.31;7386472;19;1851;-34
2024/03/15 10:24:11;;;;;;;;;;;;;;;20.18;63.84;101075.69;7390530;19;1567;-35
2024/03/15 10:26:40;;;;;;;;;;;;;;;20.16;64.06;101088.41;7387430;19;2437;-35
2024/03/15 10:29:08;;;;;;;;;;;;;;;20.10;64.04;101081.75;7389750;19;1469;-35
2024/03/15 10:31:37;;;;;;;;;;;;;;;20.08;64.33;101081.03;7390298;19;1015;-39
2024/03/15 10:34:06;;;;;;;;;;;;;;;20.13;64.19;101073.41;7376730;19;1833;-35
2024/03/15 10:36:38;;;;;;;;;;;;;;;20.08;64.40;101059.56;7385518;19;1219;-35
2024/03/15 10:39:08;;;;;;;;;;;;;;;19.99;64.67;101069.25;7387489;19;1637;-35
2024/03/15 10:41:37;;;;;;;;;;;;;;;20.00;64.55;101073.66;7385112;19;1871;-35
2024/03/15 10:44:06;;;;;;;;;;;;;;;20.00;64.60;101070.13;7386719;19;1253;-35
2024/03/15 10:46:35;;;;;;;;;;;;;;;20.05;64.58;101066.06;7382908;19;1810;-34
2024/03/15 10:49:04;;;;;;;;;;;;;;;19.98;64.65;101058.66;7369189;19;1607;-35
2024/03/15 10:51:36;;;;;;;;;;;;;;;20.00;64.56;101060.22;7386569;19;1565;-35
2024/03/15 10:54:07;;;;;;;;;;;;;;;20.01;64.47;101058.38;7386372;19;1222;-37
2024/03/15 10:56:36;;;;;;;;;;;;;;;19.99;64.59;101063.88;7384586;19;1647;-35
2024/03/15 10:59:06;;;;;;;;;;;;;;;20.03;64.17;101069.84;7385862;19;1512;-34
2024/03/15 11:01:35;;;;;;;;;;;;;;;20.04;64.09;101058.97;7383139;19;1894;-35
2024/03/15 11:04:04;;;;;;;;;;;;;;;20.08;63.92;101058.72;7384409;19;1653;-36
2024/03/15 11:06:42;;;;;;;;;;;;;;;20.12;64.08;101052.09;7385361;19;1214;-34
2024/03/15 11:09:24;;;;;;;;;;;;;;;20.09;63.88;101053.19;7384077;19;1509;-35
2024/03/15 11:12:02;;;;;;;;;;;;;;;20.02;63.96;101050.19;7381976;19;1770;-35
2024/03/15 11:14:34;;;;;;;;;;;;;;;20.11;63.81;101064.63;7384776;19;1493;-34
2024/03/15 11:17:03;;;;;;;;;;;;;;;20.12;63.74;101055.59;7385529;19;1101;-35
2024/03/15 11:19:42;;;;;;;;;;;;;;;19.84;64.46;101049.97;7384898;19;1433;-35
2024/03/15 11:22:19;;;;;;;;;;;;;;;19.58;65.25;101054.06;7384574;19;1517;-35
2024/03/15 11:24:50;;;;;;;;;;;;;;;19.41;65.67;101059.00;7385779;19;1680;-35
2024/03/15 11:27:19;;;;;;;;;;;;;;;19.29;66.01;101049.34;7388072;19;1591;-35
2024/03/15 11:29:55;;;;;;;;;;;;;;;19.68;64.80;101057.66;7388010;19;1391;-35
2024/03/15 11:32:27;;;;;;;;;;;;;;;19.94;63.83;101041.13;7386833;19;1623;-36
2024/03/15 11:34:58;;;;;;;;;;;;;;;19.91;63.94;101047.59;7389141;19;1556;-35
2024/03/15 11:37:24;;;;;;;;;;;;;;;19.86;63.92;101048.00;7388941;19;1609;-35
2024/03/15 11:40:04;;;;;;;;;;;;;;;19.97;63.68;101056.94;7388390;19;1843;-35
2024/03/15 11:42:33;;;;;;;;;;;;;;;20.04;63.54;101036.66;7389140;19;1631;-35
2024/03/15 11:45:01;;;;;;;;;;;;;;;20.03;63.35;101042.97;7388977;19;1303;-36
2024/03/15 11:47:30;;;;;;;;;;;;;;;20.07;63.25;101047.09;7388766;19;1933;-36
2024/03/15 11:50:01;;;;;;;;;;;;;;;20.20;62.88;101049.56;7372443;19;1263;-36
2024/03/15 11:52:30;;;;;;;;;;;;;;;20.32;62.65;101044.94;7385686;19;1582;-35
2024/03/15 11:55:00;;;;;;;;;;;;;;;20.24;62.98;101049.13;7387374;19;1461;-35
2024/03/15 11:57:32;;;;;;;;;;;;;;;20.14;63.26;101026.78;7380845;19;1276;-35
2024/03/15 12:00:01;;;;;;;;;;;;;;;20.19;63.04;101037.97;7376501;19;2343;-35
2024/03/15 12:02:31;;;;;;;;;;;;;;;20.19;62.88;101042.47;7385910;19;1586;-35
2024/03/15 12:04:59;;;;;;;;;;;;;;;19.89;63.33;101033.47;7388320;19;1619;-35
2024/03/15 12:07:29;;;;;;;;;;;;;;;19.74;63.99;101030.31;7389553;19;1195;-35
2024/03/15 12:10:01;;;;;;;;;;;;;;;19.53;64.84;101029.44;7388663;19;1520;-35
2024/03/15 12:12:33;;;;;;;;;;;;;;;19.33;65.44;101052.63;7388359;19;1371;-35
2024/03/15 12:15:01;;;;;;;;;;;;;;;19.30;65.76;101043.00;7387625;19;1514;-35
2024/03/15 12:17:30;;;;;;;;;;;;;;;19.20;65.96;101040.25;7389386;19;1308;-35
2024/03/15 12:19:59;;;;;;;;;;;;;;;19.26;66.27;101025.50;7388173;19;1591;-35
2024/03/15 12:22:29;;;;;;;;;;;;;;;19.23;66.00;101041.81;7385791;19;1384;-35
2024/03/15 12:24:57;;;;;;;;;;;;;;;19.28;66.04;101039.63;7386084;19;1392;-35
2024/03/15 12:27:26;;;;;;;;;;;;;;;19.22;66.41;101040.13;7385150;19;1398;-35
2024/03/15 12:29:57;;;;;;;;;;;;;;;19.47;65.66;101042.41;7388174;19;1168;-35
2024/03/15 12:32:26;;;;;;;;;;;;;;;19.73;64.99;101033.97;7387614;19;1461;-35
2024/03/15 12:34:54;;;;;;;;;;;;;;;19.84;64.64;101051.81;7388451;19;1574;-35
2024/03/15 12:37:27;;;;;;;;;;;;;;;19.61;64.93;101051.09;7389061;19;1324;-34
2024/03/15 12:39:57;;;;;;;;;;;;;;;19.58;65.24;101052.22;7387061;19;1380;-35
2024/03/15 12:42:26;;;;;;;;;;;;;;;19.81;64.57;101031.44;7385033;19;1876;-36
2024/03/15 12:44:57;;;;;;;;;;;;;;;20.05;64.08;101051.75;7386828;19;2235;-34
2024/03/15 12:47:27;;;;;;;;;;;;;;;20.38;63.01;101041.69;7387655;19;1525;-35
2024/03/15 12:49:56;;;;;;;;;;;;;;;20.53;62.68;101048.38;7371845;19;1470;-35
2024/03/15 12:52:24;;;;;;;;;;;;;;;20.50;62.62;101048.63;7387502;19;1401;-35
2024/03/15 12:54:53;;;;;;;;;;;;;;;20.53;62.40;101048.38;7384609;19;2397;-35
2024/03/15 12:57:21;;;;;;;;;;;;;;;20.44;62.73;101049.19;7385995;19;1259;-36
2024/03/15 12:59:50;;;;;;;;;;;;;;;20.37;62.60;101037.28;7383192;19;1497;-35
2024/03/15 13:02:21;;;;;;;;;;;;;;;20.41;62.37;101044.09;7385551;19;1842;-35